Time;durP1;ratioP1;P1;durP2;ratioP2;P2;SDS_P1;SDS_P2;PMS_P1;PMS_P2;Temp;Humidity;BMP_temperature;BMP_pressure;BME280_temperature;BME280_humidity;BME280_pressure;Samples;Min_cycle;Max_cycle;Signal;HPM_P1;HPM_P2
2022/08/18 00:00:24;;;;;;;;;19.75;18.75;;;;;;;;5173675;28;8819;-78
2022/08/18 00:02:57;;;;;;;;;20.75;19.00;;;;;;;;5187241;28;9547;-78
2022/08/18 00:05:29;;;;;;;;;14.25;14.25;;;;;;;;5205062;28;8785;-78
2022/08/18 00:08:00;;;;;;;;;19.50;19.00;;;;;;;;5223951;28;8821;-78
2022/08/18 00:10:32;;;;;;;;;18.00;16.25;;;;;;;;5191310;28;8791;-78
2022/08/18 00:13:03;;;;;;;;;15.00;14.25;;;;;;;;5174988;28;8786;-78
2022/08/18 00:15:34;;;;;;;;;14.25;13.25;;;;;;;;5174966;28;8810;-78
2022/08/18 00:18:24;;;;;;;;;12.25;12.25;;;;;;;;5193707;28;8806;-79
2022/08/18 00:20:55;;;;;;;;;9.75;9.25;;;;;;;;5175038;28;8807;-79
2022/08/18 00:23:27;;;;;;;;;10.00;8.75;;;;;;;;5225336;28;8846;-79
2022/08/18 00:25:59;;;;;;;;;11.50;11.25;;;;;;;;5175075;28;8795;-79
2022/08/18 00:28:30;;;;;;;;;7.25;6.25;;;;;;;;5176729;28;8797;-78
2022/08/18 00:31:03;;;;;;;;;7.00;7.00;;;;;;;;5155048;28;9484;-78
2022/08/18 00:33:34;;;;;;;;;7.75;7.50;;;;;;;;5155009;28;8857;-79
2022/08/18 00:36:06;;;;;;;;;6.00;6.00;;;;;;;;5170945;28;8801;-78
2022/08/18 00:38:38;;;;;;;;;7.25;6.50;;;;;;;;5187288;28;8816;-79
2022/08/18 00:41:09;;;;;;;;;7.00;7.00;;;;;;;;5171138;28;8859;-80
2022/08/18 00:43:58;;;;;;;;;8.00;8.00;;;;;;;;5186776;28;8806;-80
2022/08/18 00:46:32;;;;;;;;;6.50;6.25;;;;;;;;5170933;28;8773;-79
2022/08/18 00:49:04;;;;;;;;;5.50;5.50;;;;;;;;5187324;28;8855;-78
2022/08/18 00:51:40;;;;;;;;;6.50;6.50;;;;;;;;5189004;28;8757;-81
2022/08/18 00:54:18;;;;;;;;;9.00;9.00;;;;;;;;5192361;28;8870;-79
2022/08/18 00:56:50;;;;;;;;;7.25;7.25;;;;;;;;5161866;28;8783;-77
2022/08/18 00:59:21;;;;;;;;;7.00;7.00;;;;;;;;5194878;28;8778;-79
2022/08/18 01:01:55;;;;;;;;;7.50;6.75;;;;;;;;5178391;28;8783;-78
2022/08/18 01:04:32;;;;;;;;;7.75;7.00;;;;;;;;5178699;28;8772;-79
2022/08/18 01:07:11;;;;;;;;;7.50;7.50;;;;;;;;5210896;28;8775;-79
2022/08/18 01:09:42;;;;;;;;;8.00;8.00;;;;;;;;5201254;28;8775;-78
2022/08/18 01:12:13;;;;;;;;;10.00;9.00;;;;;;;;5205809;28;8764;-80
2022/08/18 01:14:45;;;;;;;;;8.75;7.75;;;;;;;;5182873;28;8779;-80
2022/08/18 01:22:59;;;;;;;;;6.50;6.50;;;;;;;;5197794;28;8832;-79
2022/08/18 01:28:22;;;;;;;;;2.00;2.00;;;;;;;;5188451;28;8803;-80
2022/08/18 01:30:57;;;;;;;;;5.00;5.00;;;;;;;;5194569;28;8860;-80
2022/08/18 01:33:48;;;;;;;;;7.75;7.75;;;;;;;;5194593;28;9602;-80
2022/08/18 01:36:20;;;;;;;;;11.25;11.25;;;;;;;;5194116;28;8779;-78
2022/08/18 01:38:52;;;;;;;;;10.25;10.25;;;;;;;;5228172;28;8938;-78
2022/08/18 01:41:24;;;;;;;;;6.75;6.75;;;;;;;;5193758;28;8819;-78
2022/08/18 01:43:57;;;;;;;;;6.50;6.50;;;;;;;;5173900;28;9536;-78
2022/08/18 01:46:30;;;;;;;;;6.50;6.50;;;;;;;;5173651;28;8809;-78
2022/08/18 01:49:19;;;;;;;;;6.00;6.00;;;;;;;;5203152;28;8785;-79
2022/08/18 01:51:51;;;;;;;;;6.50;6.50;;;;;;;;5190846;28;8799;-78
2022/08/18 01:54:23;;;;;;;;;7.00;7.00;;;;;;;;5223881;28;8791;-78
2022/08/18 01:56:54;;;;;;;;;10.50;10.50;;;;;;;;5190406;28;8802;-79
2022/08/18 01:59:26;;;;;;;;;8.50;8.50;;;;;;;;5195000;28;8888;-78
2022/08/18 02:01:58;;;;;;;;;5.00;5.00;;;;;;;;5209834;28;8806;-78
2022/08/18 02:04:35;;;;;;;;;7.50;7.50;;;;;;;;5176856;28;8822;-79
2022/08/18 02:07:07;;;;;;;;;9.00;9.00;;;;;;;;5191157;28;8874;-79
2022/08/18 02:09:39;;;;;;;;;6.75;6.75;;;;;;;;5228010;28;9517;-77
2022/08/18 02:12:29;;;;;;;;;6.25;6.25;;;;;;;;5196506;28;8810;-79
2022/08/18 02:15:01;;;;;;;;;7.50;7.50;;;;;;;;5210074;28;8798;-77
2022/08/18 02:17:37;;;;;;;;;4.50;4.50;;;;;;;;5177443;28;8786;-78
2022/08/18 02:20:10;;;;;;;;;8.50;8.50;;;;;;;;5209992;28;8819;-78
2022/08/18 02:22:42;;;;;;;;;7.75;7.75;;;;;;;;5173060;28;8836;-78
2022/08/18 02:25:14;;;;;;;;;4.75;4.75;;;;;;;;5172992;28;8785;-80
2022/08/18 02:27:45;;;;;;;;;8.00;8.00;;;;;;;;5171050;28;8823;-79
2022/08/18 02:30:38;;;;;;;;;7.25;7.25;;;;;;;;5209676;28;8771;-78
2022/08/18 02:33:10;;;;;;;;;12.00;12.00;;;;;;;;5176656;28;8790;-78
2022/08/18 02:35:59;;;;;;;;;8.50;8.50;;;;;;;;5196104;28;8779;-78
2022/08/18 02:38:30;;;;;;;;;9.25;9.00;;;;;;;;5193465;28;8821;-78
2022/08/18 02:41:20;;;;;;;;;8.00;8.00;;;;;;;;5191776;28;8895;-77
2022/08/18 02:43:51;;;;;;;;;9.50;9.50;;;;;;;;5194009;28;9552;-78
2022/08/18 02:46:22;;;;;;;;;9.00;9.00;;;;;;;;5213404;28;8777;-77
2022/08/18 02:48:55;;;;;;;;;6.00;6.00;;;;;;;;5197727;28;8809;-76
2022/08/18 02:51:27;;;;;;;;;9.00;9.00;;;;;;;;5194483;28;8783;-78
2022/08/18 02:53:58;;;;;;;;;10.25;10.25;;;;;;;;5193817;28;8799;-77
2022/08/18 02:56:30;;;;;;;;;8.00;8.00;;;;;;;;5209612;28;8819;-79
2022/08/18 02:59:06;;;;;;;;;12.00;10.50;;;;;;;;5193700;28;9514;-78
2022/08/18 03:01:39;;;;;;;;;8.00;7.00;;;;;;;;5209465;28;8835;-76
2022/08/18 03:04:11;;;;;;;;;11.25;10.25;;;;;;;;5211395;28;8826;-79
2022/08/18 03:07:03;;;;;;;;;9.50;9.50;;;;;;;;5211787;28;8787;-78
2022/08/18 03:09:35;;;;;;;;;9.50;9.50;;;;;;;;5182568;28;8801;-78
2022/08/18 03:12:07;;;;;;;;;8.00;8.00;;;;;;;;5172357;28;8781;-78
2022/08/18 03:14:38;;;;;;;;;9.00;9.00;;;;;;;;5171521;28;8792;-79
2022/08/18 03:17:09;;;;;;;;;12.75;11.25;;;;;;;;5172385;28;8776;-79
2022/08/18 03:19:43;;;;;;;;;10.75;10.25;;;;;;;;5204795;28;8797;-78
2022/08/18 03:22:14;;;;;;;;;11.50;11.50;;;;;;;;5171519;28;8805;-79
2022/08/18 03:24:46;;;;;;;;;9.75;8.00;;;;;;;;5223836;28;8929;-78
2022/08/18 03:27:35;;;;;;;;;11.00;10.25;;;;;;;;5194972;28;8809;-79
2022/08/18 03:30:06;;;;;;;;;11.67;11.67;;;;;;;;5190554;28;8791;-77
2022/08/18 03:32:37;;;;;;;;;11.50;10.00;;;;;;;;5190869;28;9562;-79
2022/08/18 03:35:08;;;;;;;;;14.00;13.25;;;;;;;;5175862;28;8795;-79
2022/08/18 03:37:39;;;;;;;;;9.50;9.50;;;;;;;;5192291;28;8764;-79
2022/08/18 03:40:29;;;;;;;;;11.50;10.50;;;;;;;;5208664;28;8807;-77
2022/08/18 03:43:07;;;;;;;;;11.25;11.00;;;;;;;;5208173;28;8927;-78
2022/08/18 03:45:38;;;;;;;;;8.00;7.50;;;;;;;;5189389;28;8953;-77
2022/08/18 03:48:09;;;;;;;;;8.67;8.67;;;;;;;;5218211;28;8932;-79
2022/08/18 03:50:49;;;;;;;;;13.75;12.50;;;;;;;;5171615;28;9761;-79
2022/08/18 03:53:32;;;;;;;;;9.00;9.00;;;;;;;;5205031;28;9518;-75
2022/08/18 03:56:14;;;;;;;;;26.80;25.60;;;;;;;;5171154;28;8789;-79
2022/08/18 03:59:12;;;;;;;;;14.00;12.50;;;;;;;;5171850;28;8777;-76
2022/08/18 04:01:45;;;;;;;;;7.75;7.00;;;;;;;;5203513;28;8801;-78
2022/08/18 04:04:18;;;;;;;;;6.75;6.75;;;;;;;;5194296;28;8638;-79
2022/08/18 04:07:03;;;;;;;;;12.50;12.50;;;;;;;;5154737;28;8789;-79
2022/08/18 04:09:35;;;;;;;;;9.25;9.25;;;;;;;;5204027;28;8789;-78
2022/08/18 04:12:25;;;;;;;;;8.50;8.50;;;;;;;;5173222;28;8808;-79
2022/08/18 04:14:56;;;;;;;;;9.75;9.75;;;;;;;;5187274;28;8780;-77
2022/08/18 04:17:45;;;;;;;;;12.00;12.00;;;;;;;;5187319;28;8824;-80
2022/08/18 04:20:16;;;;;;;;;10.50;10.50;;;;;;;;5170682;28;8799;-80
2022/08/18 04:22:47;;;;;;;;;10.25;10.25;;;;;;;;5176659;28;8837;-81
2022/08/18 04:25:18;;;;;;;;;7.00;7.00;;;;;;;;5188607;28;8842;-80
2022/08/18 04:27:49;;;;;;;;;7.50;7.50;;;;;;;;5185907;28;9517;-80
2022/08/18 04:30:39;;;;;;;;;8.50;8.50;;;;;;;;5198149;28;9562;-80
2022/08/18 04:33:11;;;;;;;;;7.50;7.50;;;;;;;;5210750;28;8803;-76
2022/08/18 04:35:42;;;;;;;;;10.00;10.00;;;;;;;;5209710;28;8809;-80
2022/08/18 04:38:13;;;;;;;;;7.75;7.75;;;;;;;;5224321;28;8793;-79
2022/08/18 04:40:46;;;;;;;;;8.25;8.25;;;;;;;;5214759;28;8832;-81
2022/08/18 04:43:17;;;;;;;;;5.50;5.50;;;;;;;;5217758;28;8817;-78
2022/08/18 04:46:07;;;;;;;;;8.00;8.00;;;;;;;;5220593;28;8806;-81
2022/08/18 04:48:39;;;;;;;;;9.25;9.25;;;;;;;;5211582;28;8823;-78
2022/08/18 04:51:29;;;;;;;;;3.75;3.75;;;;;;;;5211626;28;8767;-75
2022/08/18 04:54:00;;;;;;;;;8.00;8.00;;;;;;;;5210458;28;8783;-77
2022/08/18 04:56:40;;;;;;;;;8.50;8.25;;;;;;;;5228746;28;8794;-75
2022/08/18 04:59:12;;;;;;;;;8.25;8.25;;;;;;;;5204691;28;8816;-76
2022/08/18 05:01:46;;;;;;;;;19.00;19.00;;;;;;;;5209564;28;8797;-75
2022/08/18 05:04:17;;;;;;;;;9.50;9.50;;;;;;;;5213580;28;8795;-75
2022/08/18 05:07:09;;;;;;;;;9.00;9.00;;;;;;;;5211089;28;8783;-77
2022/08/18 05:09:41;;;;;;;;;5.00;5.00;;;;;;;;5209576;28;8845;-75
2022/08/18 05:12:13;;;;;;;;;8.25;8.25;;;;;;;;5209008;28;8825;-75
2022/08/18 05:14:44;;;;;;;;;7.75;7.75;;;;;;;;5226801;28;8779;-76
2022/08/18 05:17:38;;;;;;;;;8.75;8.75;;;;;;;;5212078;28;9016;-75
2022/08/18 05:20:27;;;;;;;;;6.00;6.00;;;;;;;;5226094;28;8802;-76
2022/08/18 05:23:00;;;;;;;;;7.50;7.50;;;;;;;;5194533;28;8825;-78
2022/08/18 05:25:32;;;;;;;;;8.50;8.50;;;;;;;;5187345;28;8793;-79
2022/08/18 05:28:04;;;;;;;;;6.00;6.00;;;;;;;;5179453;28;8787;-79
2022/08/18 05:30:35;;;;;;;;;8.25;8.25;;;;;;;;5191167;28;8914;-74
2022/08/18 05:33:09;;;;;;;;;8.00;8.00;;;;;;;;5188816;28;8928;-75
2022/08/18 05:36:04;;;;;;;;;7.00;7.00;;;;;;;;5194897;28;8837;-77
2022/08/18 05:38:39;;;;;;;;;5.50;5.50;;;;;;;;5209468;28;8771;-79
2022/08/18 05:41:13;;;;;;;;;9.00;9.00;;;;;;;;5192423;28;8823;-77
2022/08/18 05:43:45;;;;;;;;;5.50;5.50;;;;;;;;5226228;28;8831;-77
2022/08/18 05:46:44;;;;;;;;;8.75;8.75;;;;;;;;5195259;28;9526;-79
2022/08/18 05:49:16;;;;;;;;;6.50;6.50;;;;;;;;5194812;28;8794;-77
2022/08/18 05:51:48;;;;;;;;;8.75;8.75;;;;;;;;5211623;28;8803;-79
2022/08/18 05:57:21;;;;;;;;;8.00;8.00;;;;;;;;5194798;28;9596;-77
2022/08/18 05:59:52;;;;;;;;;8.67;8.67;;;;;;;;5211580;28;8937;-77
2022/08/18 06:02:41;;;;;;;;;8.75;8.75;;;;;;;;5210507;28;8810;-76
2022/08/18 06:05:27;;;;;;;;;9.50;9.00;;;;;;;;5177406;28;8795;-77
2022/08/18 06:08:01;;;;;;;;;6.75;6.75;;;;;;;;5211021;28;8802;-77
2022/08/18 06:10:32;;;;;;;;;9.00;9.00;;;;;;;;5210148;28;8783;-77
2022/08/18 06:13:07;;;;;;;;;9.00;9.00;;;;;;;;5193401;28;8844;-77
2022/08/18 06:15:38;;;;;;;;;7.00;7.00;;;;;;;;5210171;28;8860;-77
2022/08/18 06:18:09;;;;;;;;;11.25;9.25;;;;;;;;5210387;28;8810;-76
2022/08/18 06:20:52;;;;;;;;;5.50;5.50;;;;;;;;5211194;28;8851;-75
2022/08/18 06:23:27;;;;;;;;;6.00;6.00;;;;;;;;5213088;28;8826;-76
2022/08/18 06:26:01;;;;;;;;;8.50;8.50;;;;;;;;5210697;28;8819;-78
2022/08/18 06:28:42;;;;;;;;;8.75;8.75;;;;;;;;5177944;28;8796;-77
2022/08/18 06:31:28;;;;;;;;;9.25;9.25;;;;;;;;5210117;28;8791;-77
2022/08/18 06:34:20;;;;;;;;;8.75;8.75;;;;;;;;5196337;28;8787;-75
2022/08/18 06:37:08;;;;;;;;;7.00;7.00;;;;;;;;5194088;28;8802;-76
2022/08/18 06:39:42;;;;;;;;;6.75;6.75;;;;;;;;5193666;28;8872;-76
2022/08/18 06:42:24;;;;;;;;;9.00;8.25;;;;;;;;5176873;28;8815;-76
2022/08/18 06:45:07;;;;;;;;;12.25;10.75;;;;;;;;5194404;28;8787;-76
2022/08/18 06:47:39;;;;;;;;;9.00;9.00;;;;;;;;5193684;28;8880;-77
2022/08/18 06:50:19;;;;;;;;;8.75;8.75;;;;;;;;5175856;28;8794;-78
2022/08/18 06:53:08;;;;;;;;;9.00;9.00;;;;;;;;5209509;28;8811;-77
2022/08/18 06:55:41;;;;;;;;;8.25;8.25;;;;;;;;5209001;28;8807;-77
2022/08/18 06:58:15;;;;;;;;;8.00;8.00;;;;;;;;5192680;28;8783;-77
2022/08/18 07:01:06;;;;;;;;;9.00;9.00;;;;;;;;5211953;28;8852;-77
2022/08/18 07:03:48;;;;;;;;;7.50;7.25;;;;;;;;5192494;28;8849;-76
2022/08/18 07:06:22;;;;;;;;;7.00;7.00;;;;;;;;5208816;28;8879;-77
2022/08/18 07:08:54;;;;;;;;;2.50;1.00;;;;;;;;5209122;28;8819;-77
2022/08/18 07:11:27;;;;;;;;;6.00;6.00;;;;;;;;5192446;28;8787;-77
2022/08/18 07:14:16;;;;;;;;;5.75;5.75;;;;;;;;5192411;28;8875;-76
2022/08/18 07:16:48;;;;;;;;;4.75;4.75;;;;;;;;5209593;28;9526;-76
2022/08/18 07:19:19;;;;;;;;;4.25;4.25;;;;;;;;5209077;28;8815;-78
2022/08/18 07:22:02;;;;;;;;;5.00;5.00;;;;;;;;5209136;28;8802;-77
2022/08/18 07:24:43;;;;;;;;;3.25;3.25;;;;;;;;5209011;28;8799;-77
2022/08/18 07:27:40;;;;;;;;;6.25;6.25;;;;;;;;5227012;28;8817;-75
2022/08/18 07:30:35;;;;;;;;;4.50;4.50;;;;;;;;5192548;28;8787;-76
2022/08/18 07:33:20;;;;;;;;;5.50;5.50;;;;;;;;5192941;28;8795;-76
2022/08/18 07:35:55;;;;;;;;;9.25;9.25;;;;;;;;5226646;28;8948;-76
2022/08/18 07:38:33;;;;;;;;;3.75;3.75;;;;;;;;5192119;28;8763;-76
2022/08/18 07:41:19;;;;;;;;;4.25;4.25;;;;;;;;5210367;28;8864;-77
2022/08/18 07:44:02;;;;;;;;;10.25;10.25;;;;;;;;5208664;28;8803;-77
2022/08/18 07:46:37;;;;;;;;;6.50;6.50;;;;;;;;5184860;28;9496;-75
2022/08/18 07:49:15;;;;;;;;;3.00;3.00;;;;;;;;5202978;28;8813;-75
2022/08/18 07:51:52;;;;;;;;;3.50;3.50;;;;;;;;5187390;28;8769;-76
2022/08/18 07:54:29;;;;;;;;;4.25;4.25;;;;;;;;5188286;28;8777;-77
2022/08/18 07:57:19;;;;;;;;;2.00;2.00;;;;;;;;5205221;28;8778;-77
2022/08/18 07:59:50;;;;;;;;;3.25;3.25;;;;;;;;5171169;28;8805;-76
2022/08/18 08:02:39;;;;;;;;;4.00;4.00;;;;;;;;5171309;28;8816;-79
2022/08/18 08:05:41;;;;;;;;;4.25;4.25;;;;;;;;5187536;28;8932;-76
2022/08/18 08:08:12;;;;;;;;;3.25;3.25;;;;;;;;5187669;28;8863;-78
2022/08/18 08:11:09;;;;;;;;;4.00;4.00;;;;;;;;5187794;28;8766;-76
2022/08/18 08:14:21;;;;;;;;;5.00;5.00;;;;;;;;5189119;28;11670;-76
2022/08/18 08:16:55;;;;;;;;;5.50;5.25;;;;;;;;5207001;28;8789;-76
2022/08/18 08:19:45;;;;;;;;;3.50;3.50;;;;;;;;5203599;28;8769;-77
2022/08/18 08:22:35;;;;;;;;;2.75;2.75;;;;;;;;5191736;28;8805;-77
2022/08/18 08:25:30;;;;;;;;;4.50;4.50;;;;;;;;5172330;28;8820;-75
2022/08/18 08:28:30;;;;;;;;;4.00;4.00;;;;;;;;5187625;28;8799;-78
2022/08/18 08:31:28;;;;;;;;;2.50;2.50;;;;;;;;5171236;28;8770;-78
2022/08/18 08:34:08;;;;;;;;;4.25;4.25;;;;;;;;5187704;28;8804;-78
2022/08/18 08:36:43;;;;;;;;;3.75;3.75;;;;;;;;5171576;28;9520;-78
2022/08/18 08:39:14;;;;;;;;;3.25;3.25;;;;;;;;5192621;28;8793;-77
2022/08/18 08:41:55;;;;;;;;;4.75;4.75;;;;;;;;5177174;28;8816;-78
2022/08/18 08:44:31;;;;;;;;;3.25;3.25;;;;;;;;5212006;28;8832;-78
2022/08/18 08:47:22;;;;;;;;;5.25;5.25;;;;;;;;5178485;28;8809;-78
2022/08/18 08:50:00;;;;;;;;;4.50;4.50;;;;;;;;5203872;28;8801;-78
2022/08/18 08:53:03;;;;;;;;;3.50;3.50;;;;;;;;5174033;28;8825;-76
2022/08/18 08:55:40;;;;;;;;;5.75;5.75;;;;;;;;5187226;28;8765;-78
2022/08/18 08:58:25;;;;;;;;;4.50;4.50;;;;;;;;5170867;28;8812;-79
2022/08/18 09:00:56;;;;;;;;;1.00;1.00;;;;;;;;5171263;28;8800;-78
2022/08/18 09:03:37;;;;;;;;;3.75;3.75;;;;;;;;5187308;28;9717;-78
2022/08/18 09:06:15;;;;;;;;;4.25;4.25;;;;;;;;5171270;28;9543;-78
2022/08/18 09:09:06;;;;;;;;;4.75;4.75;;;;;;;;5204799;28;8777;-78
2022/08/18 09:11:40;;;;;;;;;3.75;3.75;;;;;;;;5203029;28;8781;-77
2022/08/18 09:14:11;;;;;;;;;2.50;2.50;;;;;;;;5208548;28;9510;-77
2022/08/18 09:17:06;;;;;;;;;4.75;4.75;;;;;;;;5174227;28;8781;-77
2022/08/18 09:19:46;;;;;;;;;8.25;8.25;;;;;;;;5208711;28;8793;-78
2022/08/18 09:22:24;;;;;;;;;3.25;3.25;;;;;;;;5190750;28;8959;-77
2022/08/18 09:24:56;;;;;;;;;1.50;1.50;;;;;;;;5208439;28;8865;-77
2022/08/18 09:27:40;;;;;;;;;2.00;2.00;;;;;;;;5174413;28;8820;-77
2022/08/18 09:30:44;;;;;;;;;1.50;1.50;;;;;;;;5174449;28;8827;-77
2022/08/18 09:33:33;;;;;;;;;2.00;2.00;;;;;;;;5165889;28;9534;-78
2022/08/18 09:36:18;;;;;;;;;1.25;1.25;;;;;;;;5208177;28;8781;-77
2022/08/18 09:41:59;;;;;;;;;2.00;2.00;;;;;;;;5190583;28;8782;-77
2022/08/18 09:44:48;;;;;;;;;0.75;0.75;;;;;;;;5208147;28;8850;-77
2022/08/18 09:47:19;;;;;;;;;1.67;1.67;;;;;;;;5190433;28;8789;-77
2022/08/18 09:50:15;;;;;;;;;1.25;1.25;;;;;;;;5176762;28;8757;-78
2022/08/18 09:52:47;;;;;;;;;1.25;1.25;;;;;;;;5191808;28;8773;-77
2022/08/18 09:55:39;;;;;;;;;2.75;2.75;;;;;;;;5198265;28;8800;-78
2022/08/18 09:58:18;;;;;;;;;1.25;1.25;;;;;;;;5198103;28;8847;-77
2022/08/18 10:01:08;;;;;;;;;0.00;0.00;;;;;;;;5193960;28;8775;-76
2022/08/18 10:03:39;;;;;;;;;3.50;3.00;;;;;;;;5194908;28;8890;-78
2022/08/18 10:06:13;;;;;;;;;1.75;1.75;;;;;;;;5212788;28;8786;-78
2022/08/18 10:09:00;;;;;;;;;2.25;2.25;;;;;;;;5197454;28;8770;-78
2022/08/18 10:11:41;;;;;;;;;8.00;8.00;;;;;;;;5180394;28;8767;-80
2022/08/18 10:14:41;;;;;;;;;51.40;43.60;;;;;;;;5177585;28;8885;-78
2022/08/18 10:17:39;;;;;;;;;4.00;4.00;;;;;;;;5179036;28;8787;-76
2022/08/18 10:20:21;;;;;;;;;3.25;3.25;;;;;;;;5189213;28;8896;-80
2022/08/18 10:22:52;;;;;;;;;3.75;3.75;;;;;;;;5176554;28;8799;-79
2022/08/18 10:25:35;;;;;;;;;2.50;2.25;;;;;;;;5192379;28;9636;-78
2022/08/18 10:28:08;;;;;;;;;1.50;1.50;;;;;;;;5202254;28;8785;-76
2022/08/18 10:30:44;;;;;;;;;2.50;2.50;;;;;;;;5187326;28;8797;-77
2022/08/18 10:33:35;;;;;;;;;2.00;2.00;;;;;;;;5172828;28;8805;-77
2022/08/18 10:36:06;;;;;;;;;1.75;1.75;;;;;;;;5190560;28;8805;-80
2022/08/18 10:38:42;;;;;;;;;0.00;0.00;;;;;;;;5190999;28;9529;-78
2022/08/18 10:41:22;;;;;;;;;2.50;2.50;;;;;;;;5208034;28;9565;-79
2022/08/18 10:43:54;;;;;;;;;3.75;3.75;;;;;;;;5191144;28;8830;-79
2022/08/18 10:46:27;;;;;;;;;2.75;2.75;;;;;;;;5204029;28;8922;-77
2022/08/18 10:49:24;;;;;;;;;2.00;2.00;;;;;;;;5185434;28;8817;-78
2022/08/18 10:52:04;;;;;;;;;0.50;0.50;;;;;;;;5174749;28;8833;-75
2022/08/18 10:54:47;;;;;;;;;2.50;2.50;;;;;;;;5222581;28;8845;-75
2022/08/18 10:57:55;;;;;;;;;6.25;6.25;;;;;;;;5180582;28;8839;-75
2022/08/18 11:00:47;;;;;;;;;4.25;4.25;;;;;;;;5185109;28;8801;-75
2022/08/18 11:03:39;;;;;;;;;2.00;2.00;;;;;;;;5153474;28;8861;-77
2022/08/18 11:06:16;;;;;;;;;0.50;0.50;;;;;;;;5186663;28;8823;-76
2022/08/18 11:09:06;;;;;;;;;1.00;1.00;;;;;;;;5202874;28;8775;-76
2022/08/18 11:11:41;;;;;;;;;0.50;0.50;;;;;;;;5190456;28;9552;-76
2022/08/18 11:14:19;;;;;;;;;2.25;2.25;;;;;;;;5207039;28;9591;-76
2022/08/18 11:17:21;;;;;;;;;0.00;0.00;;;;;;;;5188831;28;9536;-76
2022/08/18 11:19:53;;;;;;;;;1.75;1.75;;;;;;;;5163574;28;8801;-76
2022/08/18 11:22:26;;;;;;;;;1.00;1.00;;;;;;;;5240362;28;8827;-76
2022/08/18 11:24:57;;;;;;;;;0.50;0.50;;;;;;;;5205132;28;8829;-77
2022/08/18 11:27:29;;;;;;;;;0.00;0.00;;;;;;;;5190404;28;9545;-77
2022/08/18 11:30:01;;;;;;;;;0.00;0.00;;;;;;;;5224260;28;8818;-77
2022/08/18 11:32:36;;;;;;;;;0.25;0.25;;;;;;;;5206527;28;9631;-77
2022/08/18 11:35:17;;;;;;;;;0.25;0.25;;;;;;;;5173592;28;8833;-77
2022/08/18 11:38:11;;;;;;;;;1.25;1.25;;;;;;;;5190181;28;8876;-76
2022/08/18 11:40:44;;;;;;;;;0.00;0.00;;;;;;;;5201912;28;8960;-79
2022/08/18 11:43:34;;;;;;;;;0.00;0.00;;;;;;;;5200273;28;8820;-77
2022/08/18 11:46:24;;;;;;;;;2.25;2.25;;;;;;;;5223352;28;8897;-76
2022/08/18 11:49:16;;;;;;;;;4.25;4.25;;;;;;;;5195027;28;8803;-76
2022/08/18 11:51:58;;;;;;;;;0.50;0.50;;;;;;;;5197964;28;8803;-75
2022/08/18 11:54:48;;;;;;;;;0.50;0.50;;;;;;;;5203396;28;8797;-76
2022/08/18 11:57:48;;;;;;;;;0.00;0.00;;;;;;;;5196490;28;8815;-77
2022/08/18 12:00:35;;;;;;;;;0.75;0.75;;;;;;;;5196489;28;8901;-78
2022/08/18 12:03:26;;;;;;;;;25.00;24.25;;;;;;;;5189464;28;8830;-76
2022/08/18 12:06:24;;;;;;;;;1.00;1.00;;;;;;;;5185726;28;8816;-79
2022/08/18 12:08:59;;;;;;;;;0.00;0.00;;;;;;;;5180397;28;8806;-77
2022/08/18 12:11:48;;;;;;;;;3.00;3.00;;;;;;;;5189096;28;9012;-79
2022/08/18 12:14:21;;;;;;;;;5.00;5.00;;;;;;;;5172208;28;8842;-80
2022/08/18 12:16:53;;;;;;;;;0.00;0.00;;;;;;;;5189437;28;8798;-83
2022/08/18 12:19:26;;;;;;;;;0.00;0.00;;;;;;;;5222902;28;8783;-82
2022/08/18 12:21:59;;;;;;;;;0.00;0.00;;;;;;;;5185987;28;8822;-79
2022/08/18 12:24:32;;;;;;;;;0.00;0.00;;;;;;;;5183395;28;8866;-77
2022/08/18 12:27:03;;;;;;;;;13.75;13.75;;;;;;;;5196950;28;8787;-78
2022/08/18 12:29:34;;;;;;;;;2.00;2.00;;;;;;;;5190693;28;8806;-82
2022/08/18 12:32:05;;;;;;;;;2.67;2.67;;;;;;;;5186516;28;8809;-78
2022/08/18 12:34:37;;;;;;;;;3.75;3.75;;;;;;;;5168749;28;11483;-76
2022/08/18 12:37:09;;;;;;;;;0.00;0.00;;;;;;;;5181898;28;8779;-78
2022/08/18 12:39:41;;;;;;;;;0.00;0.00;;;;;;;;5178806;28;8821;-81
2022/08/18 12:42:13;;;;;;;;;0.00;0.00;;;;;;;;5168860;28;8946;-80
2022/08/18 12:44:45;;;;;;;;;0.00;0.00;;;;;;;;5205368;28;8795;-79
2022/08/18 12:47:22;;;;;;;;;0.00;0.00;;;;;;;;5180328;28;8801;-78
2022/08/18 12:49:53;;;;;;;;;0.00;0.00;;;;;;;;5203089;28;8818;-78
2022/08/18 12:52:24;;;;;;;;;0.00;0.00;;;;;;;;5222945;28;8775;-77
2022/08/18 12:54:55;;;;;;;;;6.75;6.75;;;;;;;;5177162;28;8834;-76
2022/08/18 12:57:26;;;;;;;;;0.00;0.00;;;;;;;;5181559;28;11073;-77
2022/08/18 13:00:16;;;;;;;;;0.25;0.25;;;;;;;;5197384;28;9493;-77
2022/08/18 13:02:47;;;;;;;;;0.00;0.00;;;;;;;;5205786;28;8844;-75
2022/08/18 13:05:18;;;;;;;;;9.75;9.75;;;;;;;;5225213;28;11484;-75
2022/08/18 13:08:12;;;;;;;;;5.75;5.75;;;;;;;;5206562;28;8773;-75
2022/08/18 13:10:43;;;;;;;;;11.50;11.50;;;;;;;;5202357;28;8918;-76
2022/08/18 13:13:15;;;;;;;;;8.25;8.25;;;;;;;;5211036;28;8787;-76
2022/08/18 13:15:47;;;;;;;;;2.00;2.00;;;;;;;;5194921;28;8794;-76
2022/08/18 13:18:37;;;;;;;;;2.00;2.00;;;;;;;;5205770;28;8791;-77
2022/08/18 13:21:09;;;;;;;;;1.25;1.25;;;;;;;;5229045;28;8854;-77
2022/08/18 13:23:41;;;;;;;;;0.75;0.75;;;;;;;;5228920;28;8842;-77
2022/08/18 13:26:15;;;;;;;;;2.75;2.50;;;;;;;;5211049;28;8755;-77
2022/08/18 13:28:46;;;;;;;;;1.00;1.00;;;;;;;;5210573;28;8979;-76
2022/08/18 13:31:17;;;;;;;;;1.00;1.00;;;;;;;;5211225;28;8897;-77
2022/08/18 13:33:49;;;;;;;;;2.25;2.25;;;;;;;;5170516;28;9520;-78
2022/08/18 13:36:20;;;;;;;;;1.00;1.00;;;;;;;;5190372;28;8801;-75
2022/08/18 13:38:52;;;;;;;;;2.67;2.67;;;;;;;;5190012;28;9383;-77
2022/08/18 13:41:24;;;;;;;;;0.00;0.00;;;;;;;;5207888;28;9646;-76
2022/08/18 13:43:55;;;;;;;;;1.00;1.00;;;;;;;;5174110;28;8824;-76
2022/08/18 13:46:44;;;;;;;;;0.00;0.00;;;;;;;;5192919;28;8804;-75
2022/08/18 13:49:17;;;;;;;;;0.00;0.00;;;;;;;;5203270;28;8787;-74
2022/08/18 13:51:49;;;;;;;;;0.00;0.00;;;;;;;;5177437;28;8783;-74
2022/08/18 13:54:25;;;;;;;;;1.00;1.00;;;;;;;;5199739;28;8883;-74
2022/08/18 13:57:14;;;;;;;;;1.00;1.00;;;;;;;;5189944;28;8821;-74
2022/08/18 13:59:45;;;;;;;;;1.00;1.00;;;;;;;;5189352;28;9504;-74
2022/08/18 14:02:16;;;;;;;;;0.00;0.00;;;;;;;;5189504;28;8828;-74
2022/08/18 14:04:48;;;;;;;;;7.00;6.33;;;;;;;;5209677;28;9482;-76
2022/08/18 14:07:19;;;;;;;;;2.00;2.00;;;;;;;;5193411;28;11892;-75
2022/08/18 14:09:50;;;;;;;;;1.50;1.50;;;;;;;;5209925;28;8791;-75
2022/08/18 14:12:22;;;;;;;;;1.25;1.25;;;;;;;;5193293;28;8814;-74
2022/08/18 14:14:54;;;;;;;;;0.00;0.00;;;;;;;;5227466;28;8810;-74
2022/08/18 14:17:25;;;;;;;;;0.00;0.00;;;;;;;;5191452;28;8823;-74
2022/08/18 14:28:26;;;;;;;;;0.00;0.00;;;;;;;;5189381;28;8792;-75
2022/08/18 14:30:58;;;;;;;;;11.00;10.25;;;;;;;;5189031;28;8914;-77
2022/08/18 14:33:29;;;;;;;;;0.00;0.00;;;;;;;;5175025;28;8795;-77
2022/08/18 14:36:19;;;;;;;;;0.00;0.00;;;;;;;;5185115;28;8821;-78
2022/08/18 14:38:50;;;;;;;;;0.00;0.00;;;;;;;;5185024;28;8875;-74
2022/08/18 14:41:21;;;;;;;;;1.25;1.25;;;;;;;;5184732;28;8807;-75
2022/08/18 14:43:55;;;;;;;;;1.00;1.00;;;;;;;;5184382;28;8829;-77
2022/08/18 14:46:46;;;;;;;;;1.00;1.00;;;;;;;;5187091;28;9402;-76
2022/08/18 14:49:36;;;;;;;;;0.00;0.00;;;;;;;;5206565;28;8773;-78
2022/08/18 14:52:06;;;;;;;;;0.67;0.67;;;;;;;;5204811;28;8812;-74
2022/08/18 14:54:38;;;;;;;;;0.00;0.00;;;;;;;;5188926;28;10059;-76
2022/08/18 14:57:10;;;;;;;;;0.00;0.00;;;;;;;;5205068;28;8777;-79
2022/08/18 15:00:00;;;;;;;;;0.00;0.00;;;;;;;;5191233;28;8784;-80
2022/08/18 15:02:33;;;;;;;;;0.25;0.25;;;;;;;;5178332;28;8846;-79
2022/08/18 15:05:05;;;;;;;;;0.00;0.00;;;;;;;;5184405;28;8794;-81
2022/08/18 15:07:55;;;;;;;;;0.00;0.00;;;;;;;;5170551;28;8795;-77
2022/08/18 15:10:44;;;;;;;;;0.00;0.00;;;;;;;;5185090;28;9537;-81
2022/08/18 15:13:15;;;;;;;;;0.00;0.00;;;;;;;;5168163;28;8869;-83
2022/08/18 15:15:46;;;;;;;;;0.75;0.75;;;;;;;;5192783;28;9573;-78
2022/08/18 15:18:18;;;;;;;;;0.00;0.00;;;;;;;;5207139;28;8787;-78
2022/08/18 15:26:31;;;;;;;;;0.00;0.00;;;;;;;;5207897;28;8805;-79
2022/08/18 15:29:20;;;;;;;;;3.50;3.50;;;;;;;;5221585;28;8814;-77
2022/08/18 15:31:51;;;;;;;;;1.00;1.00;;;;;;;;5216168;28;8805;-78
2022/08/18 15:34:42;;;;;;;;;1.00;1.00;;;;;;;;5216116;28;8846;-77
2022/08/18 15:37:15;;;;;;;;;2.00;2.00;;;;;;;;5186512;28;8840;-76
2022/08/18 15:39:47;;;;;;;;;0.50;0.50;;;;;;;;5171294;28;8792;-77
2022/08/18 15:42:18;;;;;;;;;1.00;1.00;;;;;;;;5194124;28;8791;-75
2022/08/18 15:44:51;;;;;;;;;0.75;0.75;;;;;;;;5208536;28;8791;-75
2022/08/18 15:47:23;;;;;;;;;0.50;0.50;;;;;;;;5225928;28;8790;-75
2022/08/18 15:49:54;;;;;;;;;0.00;0.00;;;;;;;;5191697;28;8814;-77
2022/08/18 15:52:25;;;;;;;;;0.00;0.00;;;;;;;;5207890;28;8783;-76
2022/08/18 15:54:59;;;;;;;;;0.00;0.00;;;;;;;;5225813;28;11722;-75
2022/08/18 15:57:30;;;;;;;;;0.00;0.00;;;;;;;;5194688;28;8828;-75
2022/08/18 16:00:20;;;;;;;;;14.75;14.75;;;;;;;;5205123;28;8789;-75
2022/08/18 16:02:55;;;;;;;;;7.50;7.50;;;;;;;;5198305;28;8866;-76
2022/08/18 16:05:36;;;;;;;;;3.00;3.00;;;;;;;;5191250;28;8865;-73
2022/08/18 16:08:09;;;;;;;;;3.00;3.00;;;;;;;;5191378;28;8771;-75
2022/08/18 16:10:40;;;;;;;;;3.00;2.75;;;;;;;;5191332;28;8869;-77
2022/08/18 16:13:13;;;;;;;;;1.00;1.00;;;;;;;;5191457;28;8810;-75
2022/08/18 16:15:46;;;;;;;;;1.25;1.25;;;;;;;;5190933;28;8795;-82
2022/08/18 16:18:19;;;;;;;;;2.25;2.25;;;;;;;;5174533;28;8795;-83
2022/08/18 16:20:51;;;;;;;;;1.75;1.75;;;;;;;;5190911;28;9534;-83
2022/08/18 16:23:21;;;;;;;;;5.25;5.25;;;;;;;;5207251;28;8837;-85
2022/08/18 16:26:13;;;;;;;;;5.00;5.00;;;;;;;;5181774;28;9562;-81